Ault Field, Washington
Current Conditions -  °F | °C
As of 7:56 AM on Friday 24 Oct 2014 (Local Time) from KNUW Reporting Station
Broken Clouds Broken Clouds  
Wind Chill: 10°   Ceiling: 10000
Heat Index: 10°   Visibility: 10mi
Dew Point:   Wind: 6mph
Humidity: 77%   Direction: 130°SE
Pressure: 30.05"   Gusts: NA
Location:  48.3182°N, 122.634°W
Report Text: KNUW 241456Z 13005KT 10SM FEW018 SCT032 BKN100 BKN250 10/06 A3005 RMK AO2 SLP181 T01000061 53009 $
Loading
Personal Weather Stations






























Interactive Weather Map
Tropical Storm Tracking
New forecast layout! Learn more

10-Day Weather Forecast

Advertisements
Track Severe Weather on mobile